sensor_id;sensor_type;location;lat;lon;timestamp;P1;durP1;ratioP1;P2;durP2;ratioP2
75152;SDS011;63734;45.218;36.708;2023-01-28T00:00:06;31.95;;;14.48;;
75152;SDS011;63734;45.218;36.708;2023-01-28T00:02:36;30.65;;;13.88;;
75152;SDS011;63734;45.218;36.708;2023-01-28T00:05:02;28.75;;;11.75;;
75152;SDS011;63734;45.218;36.708;2023-01-28T00:07:29;33.33;;;15.27;;
75152;SDS011;63734;45.218;36.708;2023-01-28T00:09:55;28.63;;;13.23;;
75152;SDS011;63734;45.218;36.708;2023-01-28T00:12:21;24.80;;;12.13;;
75152;SDS011;63734;45.218;36.708;2023-01-28T00:14:46;25.38;;;11.40;;
75152;SDS011;63734;45.218;36.708;2023-01-28T00:17:13;27.88;;;12.30;;
75152;SDS011;63734;45.218;36.708;2023-01-28T00:19:39;28.60;;;14.25;;
75152;SDS011;63734;45.218;36.708;2023-01-28T00:22:05;32.63;;;14.20;;
75152;SDS011;63734;45.218;36.708;2023-01-28T00:24:31;24.75;;;10.82;;
75152;SDS011;63734;45.218;36.708;2023-01-28T00:26:57;36.03;;;14.05;;
75152;SDS011;63734;45.218;36.708;2023-01-28T00:29:23;26.95;;;10.98;;
75152;SDS011;63734;45.218;36.708;2023-01-28T00:31:49;27.08;;;12.25;;
75152;SDS011;63734;45.218;36.708;2023-01-28T00:34:15;28.90;;;10.80;;
75152;SDS011;63734;45.218;36.708;2023-01-28T00:36:41;28.85;;;13.32;;
75152;SDS011;63734;45.218;36.708;2023-01-28T00:39:12;26.95;;;11.50;;
75152;SDS011;63734;45.218;36.708;2023-01-28T00:41:40;22.48;;;9.75;;
75152;SDS011;63734;45.218;36.708;2023-01-28T00:44:07;25.48;;;12.38;;
75152;SDS011;63734;45.218;36.708;2023-01-28T00:46:34;26.20;;;11.45;;
75152;SDS011;63734;45.218;36.708;2023-01-28T00:49:00;24.33;;;10.30;;
75152;SDS011;63734;45.218;36.708;2023-01-28T00:51:26;30.67;;;13.05;;
75152;SDS011;63734;45.218;36.708;2023-01-28T00:53:52;21.63;;;9.90;;
75152;SDS011;63734;45.218;36.708;2023-01-28T00:56:18;21.10;;;10.15;;
75152;SDS011;63734;45.218;36.708;2023-01-28T00:58:45;25.40;;;11.60;;
75152;SDS011;63734;45.218;36.708;2023-01-28T01:01:12;23.90;;;10.45;;
75152;SDS011;63734;45.218;36.708;2023-01-28T01:03:44;27.90;;;12.52;;
75152;SDS011;63734;45.218;36.708;2023-01-28T01:06:11;20.08;;;10.13;;
75152;SDS011;63734;45.218;36.708;2023-01-28T01:08:38;22.92;;;11.82;;
75152;SDS011;63734;45.218;36.708;2023-01-28T01:11:08;22.67;;;10.15;;
75152;SDS011;63734;45.218;36.708;2023-01-28T01:13:35;27.77;;;11.63;;
75152;SDS011;63734;45.218;36.708;2023-01-28T01:16:06;21.70;;;10.52;;
75152;SDS011;63734;45.218;36.708;2023-01-28T01:18:35;41.78;;;13.75;;
75152;SDS011;63734;45.218;36.708;2023-01-28T01:21:01;27.67;;;9.63;;
75152;SDS011;63734;45.218;36.708;2023-01-28T01:23:31;27.85;;;12.82;;
75152;SDS011;63734;45.218;36.708;2023-01-28T01:25:57;35.88;;;14.63;;
75152;SDS011;63734;45.218;36.708;2023-01-28T01:28:23;23.95;;;10.27;;
75152;SDS011;63734;45.218;36.708;2023-01-28T01:30:57;24.65;;;11.02;;
75152;SDS011;63734;45.218;36.708;2023-01-28T01:33:28;35.30;;;13.02;;
75152;SDS011;63734;45.218;36.708;2023-01-28T01:35:55;24.65;;;10.18;;
75152;SDS011;63734;45.218;36.708;2023-01-28T01:38:21;24.10;;;10.65;;
75152;SDS011;63734;45.218;36.708;2023-01-28T01:40:48;30.30;;;13.63;;
75152;SDS011;63734;45.218;36.708;2023-01-28T01:43:18;32.53;;;14.18;;
75152;SDS011;63734;45.218;36.708;2023-01-28T01:45:46;25.98;;;12.05;;
75152;SDS011;63734;45.218;36.708;2023-01-28T01:48:17;28.48;;;12.07;;
75152;SDS011;63734;45.218;36.708;2023-01-28T01:50:52;33.45;;;13.68;;
75152;SDS011;63734;45.218;36.708;2023-01-28T01:53:21;25.35;;;11.25;;
75152;SDS011;63734;45.218;36.708;2023-01-28T01:55:50;27.20;;;13.50;;
75152;SDS011;63734;45.218;36.708;2023-01-28T01:58:19;34.65;;;16.58;;
75152;SDS011;63734;45.218;36.708;2023-01-28T02:00:48;23.88;;;11.15;;
75152;SDS011;63734;45.218;36.708;2023-01-28T02:03:14;29.95;;;14.65;;
75152;SDS011;63734;45.218;36.708;2023-01-28T02:05:44;33.25;;;15.52;;
75152;SDS011;63734;45.218;36.708;2023-01-28T02:08:10;35.08;;;15.35;;
75152;SDS011;63734;45.218;36.708;2023-01-28T02:10:49;31.52;;;15.93;;
75152;SDS011;63734;45.218;36.708;2023-01-28T02:13:20;26.33;;;13.02;;
75152;SDS011;63734;45.218;36.708;2023-01-28T02:15:49;35.00;;;18.25;;
75152;SDS011;63734;45.218;36.708;2023-01-28T02:18:16;24.52;;;11.95;;
75152;SDS011;63734;45.218;36.708;2023-01-28T02:21:02;34.72;;;15.48;;
75152;SDS011;63734;45.218;36.708;2023-01-28T02:27:09;44.45;;;18.40;;
75152;SDS011;63734;45.218;36.708;2023-01-28T02:29:47;37.33;;;17.05;;
75152;SDS011;63734;45.218;36.708;2023-01-28T02:32:20;39.88;;;17.50;;
75152;SDS011;63734;45.218;36.708;2023-01-28T02:34:55;27.50;;;11.55;;
75152;SDS011;63734;45.218;36.708;2023-01-28T02:37:42;16.67;;;9.23;;
75152;SDS011;63734;45.218;36.708;2023-01-28T02:40:13;24.63;;;11.30;;
75152;SDS011;63734;45.218;36.708;2023-01-28T02:42:44;32.70;;;14.25;;
75152;SDS011;63734;45.218;36.708;2023-01-28T02:45:14;30.80;;;14.60;;
75152;SDS011;63734;45.218;36.708;2023-01-28T02:47:43;26.45;;;10.82;;
75152;SDS011;63734;45.218;36.708;2023-01-28T02:50:29;30.00;;;12.75;;
75152;SDS011;63734;45.218;36.708;2023-01-28T02:53:11;22.63;;;10.00;;
75152;SDS011;63734;45.218;36.708;2023-01-28T02:56:13;20.08;;;9.13;;
75152;SDS011;63734;45.218;36.708;2023-01-28T03:01:30;34.33;;;16.75;;
75152;SDS011;63734;45.218;36.708;2023-01-28T03:06:38;22.42;;;10.90;;
75152;SDS011;63734;45.218;36.708;2023-01-28T03:09:09;18.02;;;8.50;;
75152;SDS011;63734;45.218;36.708;2023-01-28T03:14:47;35.45;;;15.60;;
75152;SDS011;63734;45.218;36.708;2023-01-28T03:20:44;31.10;;;13.68;;
75152;SDS011;63734;45.218;36.708;2023-01-28T03:23:32;40.25;;;18.48;;
75152;SDS011;63734;45.218;36.708;2023-01-28T03:26:27;21.25;;;10.48;;
75152;SDS011;63734;45.218;36.708;2023-01-28T03:29:15;36.00;;;16.17;;
75152;SDS011;63734;45.218;36.708;2023-01-28T03:32:04;24.27;;;11.68;;
75152;SDS011;63734;45.218;36.708;2023-01-28T03:34:49;30.48;;;14.63;;
75152;SDS011;63734;45.218;36.708;2023-01-28T03:37:36;22.83;;;12.40;;
75152;SDS011;63734;45.218;36.708;2023-01-28T03:40:15;25.67;;;11.32;;
75152;SDS011;63734;45.218;36.708;2023-01-28T03:42:43;28.42;;;12.77;;
75152;SDS011;63734;45.218;36.708;2023-01-28T03:45:28;31.15;;;15.15;;
75152;SDS011;63734;45.218;36.708;2023-01-28T03:47:55;20.70;;;10.70;;
75152;SDS011;63734;45.218;36.708;2023-01-28T03:50:21;32.28;;;16.08;;
75152;SDS011;63734;45.218;36.708;2023-01-28T03:52:53;33.90;;;13.43;;
75152;SDS011;63734;45.218;36.708;2023-01-28T03:55:29;14.75;;;7.78;;
75152;SDS011;63734;45.218;36.708;2023-01-28T03:57:55;18.45;;;8.90;;
75152;SDS011;63734;45.218;36.708;2023-01-28T04:00:21;25.73;;;12.82;;
75152;SDS011;63734;45.218;36.708;2023-01-28T04:02:48;14.82;;;7.13;;
75152;SDS011;63734;45.218;36.708;2023-01-28T04:05:16;25.08;;;11.93;;
75152;SDS011;63734;45.218;36.708;2023-01-28T04:07:48;23.05;;;9.10;;
75152;SDS011;63734;45.218;36.708;2023-01-28T04:10:27;25.73;;;11.15;;
75152;SDS011;63734;45.218;36.708;2023-01-28T04:12:56;26.38;;;11.52;;
75152;SDS011;63734;45.218;36.708;2023-01-28T04:15:24;27.15;;;11.98;;
75152;SDS011;63734;45.218;36.708;2023-01-28T04:17:50;26.27;;;13.02;;
75152;SDS011;63734;45.218;36.708;2023-01-28T04:20:24;17.75;;;9.63;;
75152;SDS011;63734;45.218;36.708;2023-01-28T04:22:50;21.80;;;10.27;;
75152;SDS011;63734;45.218;36.708;2023-01-28T04:25:18;24.73;;;11.25;;
75152;SDS011;63734;45.218;36.708;2023-01-28T04:27:44;20.23;;;9.27;;
75152;SDS011;63734;45.218;36.708;2023-01-28T04:30:17;22.23;;;9.48;;
75152;SDS011;63734;45.218;36.708;2023-01-28T04:33:04;25.50;;;12.90;;
75152;SDS011;63734;45.218;36.708;2023-01-28T04:35:37;27.48;;;11.65;;
75152;SDS011;63734;45.218;36.708;2023-01-28T04:38:10;30.25;;;13.35;;
75152;SDS011;63734;45.218;36.708;2023-01-28T04:41:05;28.83;;;13.55;;
75152;SDS011;63734;45.218;36.708;2023-01-28T04:43:33;32.58;;;15.35;;
75152;SDS011;63734;45.218;36.708;2023-01-28T04:46:24;27.73;;;12.73;;
75152;SDS011;63734;45.218;36.708;2023-01-28T04:49:22;16.80;;;8.05;;
75152;SDS011;63734;45.218;36.708;2023-01-28T04:52:07;21.50;;;7.50;;
75152;SDS011;63734;45.218;36.708;2023-01-28T04:54:52;27.13;;;11.48;;
75152;SDS011;63734;45.218;36.708;2023-01-28T04:57:18;34.08;;;15.48;;
75152;SDS011;63734;45.218;36.708;2023-01-28T04:59:44;29.05;;;13.23;;
75152;SDS011;63734;45.218;36.708;2023-01-28T05:02:11;24.05;;;11.77;;
75152;SDS011;63734;45.218;36.708;2023-01-28T05:04:38;33.53;;;14.52;;
75152;SDS011;63734;45.218;36.708;2023-01-28T05:07:05;30.05;;;14.55;;
75152;SDS011;63734;45.218;36.708;2023-01-28T05:09:31;21.77;;;9.95;;
75152;SDS011;63734;45.218;36.708;2023-01-28T05:11:57;18.90;;;9.10;;
75152;SDS011;63734;45.218;36.708;2023-01-28T05:14:23;25.48;;;12.27;;
75152;SDS011;63734;45.218;36.708;2023-01-28T05:17:02;18.83;;;10.10;;
75152;SDS011;63734;45.218;36.708;2023-01-28T05:19:28;15.90;;;7.68;;
75152;SDS011;63734;45.218;36.708;2023-01-28T05:21:55;25.15;;;11.23;;
75152;SDS011;63734;45.218;36.708;2023-01-28T05:24:27;21.23;;;11.63;;
75152;SDS011;63734;45.218;36.708;2023-01-28T05:26:53;20.70;;;11.05;;
75152;SDS011;63734;45.218;36.708;2023-01-28T05:29:19;22.67;;;10.60;;
75152;SDS011;63734;45.218;36.708;2023-01-28T05:31:46;15.88;;;8.07;;
75152;SDS011;63734;45.218;36.708;2023-01-28T05:34:13;19.42;;;8.93;;
75152;SDS011;63734;45.218;36.708;2023-01-28T05:36:39;23.52;;;9.88;;
75152;SDS011;63734;45.218;36.708;2023-01-28T05:39:18;20.73;;;10.05;;
75152;SDS011;63734;45.218;36.708;2023-01-28T05:41:44;21.90;;;9.75;;
75152;SDS011;63734;45.218;36.708;2023-01-28T05:44:11;16.95;;;7.60;;
75152;SDS011;63734;45.218;36.708;2023-01-28T05:47:00;23.83;;;8.25;;
75152;SDS011;63734;45.218;36.708;2023-01-28T05:49:52;16.17;;;8.65;;
75152;SDS011;63734;45.218;36.708;2023-01-28T05:52:30;18.10;;;8.52;;
75152;SDS011;63734;45.218;36.708;2023-01-28T05:54:56;17.55;;;8.95;;
75152;SDS011;63734;45.218;36.708;2023-01-28T05:57:23;20.35;;;10.73;;
75152;SDS011;63734;45.218;36.708;2023-01-28T05:59:50;17.35;;;7.80;;
75152;SDS011;63734;45.218;36.708;2023-01-28T06:02:16;21.10;;;11.27;;
75152;SDS011;63734;45.218;36.708;2023-01-28T06:04:42;21.65;;;10.77;;
75152;SDS011;63734;45.218;36.708;2023-01-28T06:07:08;26.15;;;13.27;;
75152;SDS011;63734;45.218;36.708;2023-01-28T06:09:37;22.35;;;10.95;;
75152;SDS011;63734;45.218;36.708;2023-01-28T06:12:04;26.13;;;11.27;;
75152;SDS011;63734;45.218;36.708;2023-01-28T06:14:37;17.45;;;9.45;;
75152;SDS011;63734;45.218;36.708;2023-01-28T06:17:26;23.13;;;12.20;;
75152;SDS011;63734;45.218;36.708;2023-01-28T06:20:06;20.35;;;10.00;;
75152;SDS011;63734;45.218;36.708;2023-01-28T06:22:35;25.38;;;11.95;;
75152;SDS011;63734;45.218;36.708;2023-01-28T06:25:01;21.17;;;10.15;;
75152;SDS011;63734;45.218;36.708;2023-01-28T06:27:27;18.48;;;8.63;;
75152;SDS011;63734;45.218;36.708;2023-01-28T06:29:53;21.52;;;11.10;;
75152;SDS011;63734;45.218;36.708;2023-01-28T06:32:19;21.60;;;9.85;;
75152;SDS011;63734;45.218;36.708;2023-01-28T06:34:46;20.77;;;10.77;;
75152;SDS011;63734;45.218;36.708;2023-01-28T06:37:12;26.50;;;11.50;;
75152;SDS011;63734;45.218;36.708;2023-01-28T06:39:39;23.88;;;11.80;;
75152;SDS011;63734;45.218;36.708;2023-01-28T06:42:05;22.60;;;11.38;;
75152;SDS011;63734;45.218;36.708;2023-01-28T06:44:31;22.63;;;11.15;;
75152;SDS011;63734;45.218;36.708;2023-01-28T06:46:57;25.95;;;13.23;;
75152;SDS011;63734;45.218;36.708;2023-01-28T06:49:23;28.80;;;12.88;;
75152;SDS011;63734;45.218;36.708;2023-01-28T06:51:49;24.83;;;12.48;;
75152;SDS011;63734;45.218;36.708;2023-01-28T06:54:15;21.45;;;10.93;;
75152;SDS011;63734;45.218;36.708;2023-01-28T06:56:41;23.92;;;12.05;;
75152;SDS011;63734;45.218;36.708;2023-01-28T06:59:07;23.98;;;11.20;;
75152;SDS011;63734;45.218;36.708;2023-01-28T07:01:33;24.88;;;11.20;;
75152;SDS011;63734;45.218;36.708;2023-01-28T07:03:59;29.80;;;13.80;;
75152;SDS011;63734;45.218;36.708;2023-01-28T07:06:25;22.60;;;10.10;;
75152;SDS011;63734;45.218;36.708;2023-01-28T07:08:50;21.42;;;10.77;;
75152;SDS011;63734;45.218;36.708;2023-01-28T07:11:16;22.45;;;11.90;;
75152;SDS011;63734;45.218;36.708;2023-01-28T07:13:42;23.40;;;12.25;;
75152;SDS011;63734;45.218;36.708;2023-01-28T07:16:09;23.73;;;12.73;;
75152;SDS011;63734;45.218;36.708;2023-01-28T07:18:35;28.27;;;11.85;;
75152;SDS011;63734;45.218;36.708;2023-01-28T07:21:01;21.52;;;9.85;;
75152;SDS011;63734;45.218;36.708;2023-01-28T07:23:27;26.55;;;14.45;;
75152;SDS011;63734;45.218;36.708;2023-01-28T07:25:53;26.63;;;11.57;;
75152;SDS011;63734;45.218;36.708;2023-01-28T07:28:19;21.88;;;10.88;;
75152;SDS011;63734;45.218;36.708;2023-01-28T07:30:48;14.10;;;7.35;;
75152;SDS011;63734;45.218;36.708;2023-01-28T07:33:15;25.80;;;13.00;;
75152;SDS011;63734;45.218;36.708;2023-01-28T07:35:42;26.77;;;13.27;;
75152;SDS011;63734;45.218;36.708;2023-01-28T07:38:08;24.88;;;11.35;;
75152;SDS011;63734;45.218;36.708;2023-01-28T07:40:34;30.08;;;13.85;;
75152;SDS011;63734;45.218;36.708;2023-01-28T07:43:00;25.73;;;13.90;;
75152;SDS011;63734;45.218;36.708;2023-01-28T07:48:02;25.85;;;12.40;;
75152;SDS011;63734;45.218;36.708;2023-01-28T07:50:32;26.77;;;13.30;;
75152;SDS011;63734;45.218;36.708;2023-01-28T07:53:03;22.80;;;11.10;;
75152;SDS011;63734;45.218;36.708;2023-01-28T07:55:31;23.02;;;10.55;;
75152;SDS011;63734;45.218;36.708;2023-01-28T07:58:00;24.17;;;12.20;;
75152;SDS011;63734;45.218;36.708;2023-01-28T08:00:28;29.58;;;16.85;;
75152;SDS011;63734;45.218;36.708;2023-01-28T08:02:59;18.58;;;9.73;;
75152;SDS011;63734;45.218;36.708;2023-01-28T08:05:49;24.95;;;12.55;;
75152;SDS011;63734;45.218;36.708;2023-01-28T08:08:14;22.73;;;10.43;;
75152;SDS011;63734;45.218;36.708;2023-01-28T08:10:41;19.88;;;9.50;;
75152;SDS011;63734;45.218;36.708;2023-01-28T08:13:08;24.85;;;13.02;;
75152;SDS011;63734;45.218;36.708;2023-01-28T08:15:35;18.15;;;7.78;;
75152;SDS011;63734;45.218;36.708;2023-01-28T08:18:03;24.55;;;11.55;;
75152;SDS011;63734;45.218;36.708;2023-01-28T08:20:30;25.80;;;12.73;;
75152;SDS011;63734;45.218;36.708;2023-01-28T08:23:12;24.10;;;12.65;;
75152;SDS011;63734;45.218;36.708;2023-01-28T08:25:41;23.25;;;10.75;;
75152;SDS011;63734;45.218;36.708;2023-01-28T08:28:07;14.27;;;8.18;;
75152;SDS011;63734;45.218;36.708;2023-01-28T08:30:33;18.58;;;9.52;;
75152;SDS011;63734;45.218;36.708;2023-01-28T08:33:02;19.45;;;8.75;;
75152;SDS011;63734;45.218;36.708;2023-01-28T08:35:28;23.77;;;11.30;;
75152;SDS011;63734;45.218;36.708;2023-01-28T08:37:55;27.85;;;12.18;;
75152;SDS011;63734;45.218;36.708;2023-01-28T08:40:23;22.30;;;10.82;;
75152;SDS011;63734;45.218;36.708;2023-01-28T08:42:50;21.42;;;8.68;;
75152;SDS011;63734;45.218;36.708;2023-01-28T08:45:18;21.23;;;9.10;;
75152;SDS011;63734;45.218;36.708;2023-01-28T08:47:51;21.33;;;10.75;;
75152;SDS011;63734;45.218;36.708;2023-01-28T08:50:19;20.63;;;10.35;;
75152;SDS011;63734;45.218;36.708;2023-01-28T08:52:46;24.02;;;10.50;;
75152;SDS011;63734;45.218;36.708;2023-01-28T08:55:14;19.58;;;8.93;;
75152;SDS011;63734;45.218;36.708;2023-01-28T08:57:41;13.25;;;7.78;;
75152;SDS011;63734;45.218;36.708;2023-01-28T09:00:07;19.55;;;8.15;;
75152;SDS011;63734;45.218;36.708;2023-01-28T09:02:35;17.73;;;8.88;;
75152;SDS011;63734;45.218;36.708;2023-01-28T09:05:02;23.00;;;11.68;;
75152;SDS011;63734;45.218;36.708;2023-01-28T09:07:30;25.67;;;12.40;;
75152;SDS011;63734;45.218;36.708;2023-01-28T09:09:56;22.95;;;10.02;;
75152;SDS011;63734;45.218;36.708;2023-01-28T09:12:22;27.95;;;11.88;;
75152;SDS011;63734;45.218;36.708;2023-01-28T09:14:48;21.88;;;10.48;;
75152;SDS011;63734;45.218;36.708;2023-01-28T09:17:14;16.35;;;9.00;;
75152;SDS011;63734;45.218;36.708;2023-01-28T09:19:40;19.10;;;8.77;;
75152;SDS011;63734;45.218;36.708;2023-01-28T09:22:06;24.70;;;10.07;;
75152;SDS011;63734;45.218;36.708;2023-01-28T09:24:32;26.35;;;13.23;;
75152;SDS011;63734;45.218;36.708;2023-01-28T09:26:58;28.85;;;10.18;;
75152;SDS011;63734;45.218;36.708;2023-01-28T09:29:24;20.45;;;9.98;;
75152;SDS011;63734;45.218;36.708;2023-01-28T09:31:50;25.95;;;10.88;;
75152;SDS011;63734;45.218;36.708;2023-01-28T09:34:16;24.75;;;9.48;;
75152;SDS011;63734;45.218;36.708;2023-01-28T09:36:43;22.77;;;8.95;;
75152;SDS011;63734;45.218;36.708;2023-01-28T09:39:09;28.80;;;11.80;;
75152;SDS011;63734;45.218;36.708;2023-01-28T09:47:25;20.55;;;10.65;;
75152;SDS011;63734;45.218;36.708;2023-01-28T09:49:53;17.42;;;9.30;;
75152;SDS011;63734;45.218;36.708;2023-01-28T09:52:22;32.42;;;10.68;;
75152;SDS011;63734;45.218;36.708;2023-01-28T09:55:04;23.48;;;11.82;;
75152;SDS011;63734;45.218;36.708;2023-01-28T09:57:39;14.73;;;8.25;;
75152;SDS011;63734;45.218;36.708;2023-01-28T10:17:23;21.33;;;10.23;;
75152;SDS011;63734;45.218;36.708;2023-01-28T10:19:52;26.52;;;10.00;;
75152;SDS011;63734;45.218;36.708;2023-01-28T10:22:24;28.05;;;13.57;;
75152;SDS011;63734;45.218;36.708;2023-01-28T10:24:56;19.63;;;8.80;;
75152;SDS011;63734;45.218;36.708;2023-01-28T10:27:31;23.13;;;10.48;;
75152;SDS011;63734;45.218;36.708;2023-01-28T10:29:59;28.73;;;11.50;;
75152;SDS011;63734;45.218;36.708;2023-01-28T10:32:35;24.10;;;8.98;;
75152;SDS011;63734;45.218;36.708;2023-01-28T10:35:07;24.95;;;12.18;;
75152;SDS011;63734;45.218;36.708;2023-01-28T10:37:33;23.40;;;11.00;;
75152;SDS011;63734;45.218;36.708;2023-01-28T10:40:02;22.00;;;9.90;;
75152;SDS011;63734;45.218;36.708;2023-01-28T10:42:30;23.65;;;11.77;;
75152;SDS011;63734;45.218;36.708;2023-01-28T10:48:12;26.60;;;11.50;;
75152;SDS011;63734;45.218;36.708;2023-01-28T10:50:58;25.75;;;11.50;;
75152;SDS011;63734;45.218;36.708;2023-01-28T11:04:12;30.02;;;14.13;;
75152;SDS011;63734;45.218;36.708;2023-01-28T11:06:46;23.05;;;10.07;;
75152;SDS011;63734;45.218;36.708;2023-01-28T11:09:21;27.02;;;12.10;;
75152;SDS011;63734;45.218;36.708;2023-01-28T11:11:52;27.73;;;12.38;;
75152;SDS011;63734;45.218;36.708;2023-01-28T11:14:19;29.80;;;15.25;;
75152;SDS011;63734;45.218;36.708;2023-01-28T11:16:47;20.58;;;9.68;;
75152;SDS011;63734;45.218;36.708;2023-01-28T11:19:14;26.00;;;12.45;;
75152;SDS011;63734;45.218;36.708;2023-01-28T11:21:47;21.02;;;10.52;;
75152;SDS011;63734;45.218;36.708;2023-01-28T11:24:17;27.58;;;12.70;;
75152;SDS011;63734;45.218;36.708;2023-01-28T11:26:49;27.57;;;12.50;;
75152;SDS011;63734;45.218;36.708;2023-01-28T11:29:38;28.02;;;12.20;;
75152;SDS011;63734;45.218;36.708;2023-01-28T11:32:04;27.60;;;11.70;;
75152;SDS011;63734;45.218;36.708;2023-01-28T11:34:46;23.50;;;11.68;;
75152;SDS011;63734;45.218;36.708;2023-01-28T11:37:18;29.00;;;11.27;;
75152;SDS011;63734;45.218;36.708;2023-01-28T11:39:47;28.02;;;13.07;;
75152;SDS011;63734;45.218;36.708;2023-01-28T11:44:43;19.30;;;9.75;;
75152;SDS011;63734;45.218;36.708;2023-01-28T11:47:25;25.35;;;11.60;;
75152;SDS011;63734;45.218;36.708;2023-01-28T11:52:45;24.92;;;11.57;;
75152;SDS011;63734;45.218;36.708;2023-01-28T12:01:32;26.33;;;12.18;;
75152;SDS011;63734;45.218;36.708;2023-01-28T12:04:09;23.10;;;10.05;;
75152;SDS011;63734;45.218;36.708;2023-01-28T12:18:05;25.50;;;12.88;;
75152;SDS011;63734;45.218;36.708;2023-01-28T12:21:06;26.25;;;11.55;;
75152;SDS011;63734;45.218;36.708;2023-01-28T12:35:47;26.35;;;13.38;;
75152;SDS011;63734;45.218;36.708;2023-01-28T12:52:08;34.03;;;15.80;;
75152;SDS011;63734;45.218;36.708;2023-01-28T12:55:10;30.50;;;13.35;;
75152;SDS011;63734;45.218;36.708;2023-01-28T12:57:40;37.40;;;12.27;;
75152;SDS011;63734;45.218;36.708;2023-01-28T13:05:34;22.80;;;10.25;;
75152;SDS011;63734;45.218;36.708;2023-01-28T13:08:14;23.33;;;11.15;;
75152;SDS011;63734;45.218;36.708;2023-01-28T13:10:44;23.00;;;10.18;;
75152;SDS011;63734;45.218;36.708;2023-01-28T13:13:34;27.52;;;12.63;;
75152;SDS011;63734;45.218;36.708;2023-01-28T13:16:03;22.75;;;11.30;;
75152;SDS011;63734;45.218;36.708;2023-01-28T13:18:33;29.88;;;14.20;;
75152;SDS011;63734;45.218;36.708;2023-01-28T13:21:13;31.48;;;13.65;;
75152;SDS011;63734;45.218;36.708;2023-01-28T13:23:49;34.85;;;15.43;;
75152;SDS011;63734;45.218;36.708;2023-01-28T13:29:19;19.05;;;11.43;;
75152;SDS011;63734;45.218;36.708;2023-01-28T13:32:00;26.33;;;12.73;;
75152;SDS011;63734;45.218;36.708;2023-01-28T13:39:48;41.03;;;17.85;;
75152;SDS011;63734;45.218;36.708;2023-01-28T13:44:53;36.00;;;14.30;;
75152;SDS011;63734;45.218;36.708;2023-01-28T13:52:29;24.33;;;11.15;;
75152;SDS011;63734;45.218;36.708;2023-01-28T13:55:05;35.40;;;12.00;;
75152;SDS011;63734;45.218;36.708;2023-01-28T14:00:41;23.35;;;12.18;;
75152;SDS011;63734;45.218;36.708;2023-01-28T14:16:55;22.38;;;10.65;;
75152;SDS011;63734;45.218;36.708;2023-01-28T14:19:27;29.58;;;12.45;;
75152;SDS011;63734;45.218;36.708;2023-01-28T14:21:57;24.63;;;10.32;;
75152;SDS011;63734;45.218;36.708;2023-01-28T14:24:23;30.63;;;12.80;;
75152;SDS011;63734;45.218;36.708;2023-01-28T14:27:11;31.23;;;14.63;;
75152;SDS011;63734;45.218;36.708;2023-01-28T14:32:15;24.77;;;11.63;;
75152;SDS011;63734;45.218;36.708;2023-01-28T14:34:51;21.95;;;10.85;;
75152;SDS011;63734;45.218;36.708;2023-01-28T14:37:23;80.05;;;48.60;;
75152;SDS011;63734;45.218;36.708;2023-01-28T14:40:05;32.63;;;16.10;;
75152;SDS011;63734;45.218;36.708;2023-01-28T14:42:41;27.75;;;15.27;;
75152;SDS011;63734;45.218;36.708;2023-01-28T15:01:55;36.70;;;13.25;;
75152;SDS011;63734;45.218;36.708;2023-01-28T15:04:30;27.27;;;13.90;;
75152;SDS011;63734;45.218;36.708;2023-01-28T15:07:00;40.92;;;21.73;;
75152;SDS011;63734;45.218;36.708;2023-01-28T15:09:40;27.98;;;11.15;;
75152;SDS011;63734;45.218;36.708;2023-01-28T15:12:07;28.48;;;15.10;;
75152;SDS011;63734;45.218;36.708;2023-01-28T15:14:34;22.98;;;10.50;;
75152;SDS011;63734;45.218;36.708;2023-01-28T15:17:01;25.48;;;11.57;;
75152;SDS011;63734;45.218;36.708;2023-01-28T15:19:32;30.15;;;13.05;;
75152;SDS011;63734;45.218;36.708;2023-01-28T15:22:06;26.73;;;11.63;;
75152;SDS011;63734;45.218;36.708;2023-01-28T15:24:33;20.23;;;10.43;;
75152;SDS011;63734;45.218;36.708;2023-01-28T15:27:00;20.20;;;11.00;;
75152;SDS011;63734;45.218;36.708;2023-01-28T15:29:32;24.80;;;11.80;;
75152;SDS011;63734;45.218;36.708;2023-01-28T15:32:01;20.75;;;8.65;;
75152;SDS011;63734;45.218;36.708;2023-01-28T15:34:28;27.15;;;12.48;;
75152;SDS011;63734;45.218;36.708;2023-01-28T15:36:58;37.72;;;15.50;;
75152;SDS011;63734;45.218;36.708;2023-01-28T15:39:26;27.33;;;10.38;;
75152;SDS011;63734;45.218;36.708;2023-01-28T15:44:34;47.22;;;18.92;;
75152;SDS011;63734;45.218;36.708;2023-01-28T15:50:03;23.60;;;9.20;;
75152;SDS011;63734;45.218;36.708;2023-01-28T15:52:33;27.27;;;12.30;;
75152;SDS011;63734;45.218;36.708;2023-01-28T15:55:02;30.73;;;13.18;;
75152;SDS011;63734;45.218;36.708;2023-01-28T15:57:30;36.13;;;13.07;;
75152;SDS011;63734;45.218;36.708;2023-01-28T16:02:43;30.25;;;12.75;;
75152;SDS011;63734;45.218;36.708;2023-01-28T16:08:06;29.55;;;12.68;;
75152;SDS011;63734;45.218;36.708;2023-01-28T16:10:53;36.05;;;15.13;;
75152;SDS011;63734;45.218;36.708;2023-01-28T16:13:23;28.58;;;10.52;;
75152;SDS011;63734;45.218;36.708;2023-01-28T16:15:52;25.30;;;11.70;;
75152;SDS011;63734;45.218;36.708;2023-01-28T16:21:18;42.30;;;17.75;;
75152;SDS011;63734;45.218;36.708;2023-01-28T16:24:00;19.52;;;10.85;;
75152;SDS011;63734;45.218;36.708;2023-01-28T16:26:29;42.38;;;20.65;;
75152;SDS011;63734;45.218;36.708;2023-01-28T16:28:58;34.85;;;15.10;;
75152;SDS011;63734;45.218;36.708;2023-01-28T16:31:45;65.43;;;29.65;;
75152;SDS011;63734;45.218;36.708;2023-01-28T16:34:11;75.13;;;31.27;;
75152;SDS011;63734;45.218;36.708;2023-01-28T16:36:38;50.38;;;21.17;;
75152;SDS011;63734;45.218;36.708;2023-01-28T16:39:04;57.53;;;24.65;;
75152;SDS011;63734;45.218;36.708;2023-01-28T16:41:31;108.05;;;44.13;;
75152;SDS011;63734;45.218;36.708;2023-01-28T16:44:12;116.78;;;44.97;;
75152;SDS011;63734;45.218;36.708;2023-01-28T16:46:39;70.50;;;27.30;;
75152;SDS011;63734;45.218;36.708;2023-01-28T16:49:05;51.83;;;22.23;;
75152;SDS011;63734;45.218;36.708;2023-01-28T16:51:33;49.00;;;18.98;;
75152;SDS011;63734;45.218;36.708;2023-01-28T16:54:00;48.97;;;19.30;;
75152;SDS011;63734;45.218;36.708;2023-01-28T16:56:27;36.55;;;13.90;;
75152;SDS011;63734;45.218;36.708;2023-01-28T16:58:54;27.05;;;13.65;;
75152;SDS011;63734;45.218;36.708;2023-01-28T17:01:21;44.67;;;16.70;;
75152;SDS011;63734;45.218;36.708;2023-01-28T17:03:47;43.58;;;16.55;;
75152;SDS011;63734;45.218;36.708;2023-01-28T17:06:17;29.15;;;12.27;;
75152;SDS011;63734;45.218;36.708;2023-01-28T17:08:44;41.88;;;15.93;;
75152;SDS011;63734;45.218;36.708;2023-01-28T17:11:10;23.15;;;8.45;;
75152;SDS011;63734;45.218;36.708;2023-01-28T17:13:38;29.98;;;10.27;;
75152;SDS011;63734;45.218;36.708;2023-01-28T17:16:04;25.20;;;8.77;;
75152;SDS011;63734;45.218;36.708;2023-01-28T17:18:31;29.63;;;9.98;;
75152;SDS011;63734;45.218;36.708;2023-01-28T17:21:00;19.52;;;8.63;;
75152;SDS011;63734;45.218;36.708;2023-01-28T17:23:29;25.52;;;8.80;;
75152;SDS011;63734;45.218;36.708;2023-01-28T17:25:55;25.17;;;8.80;;